Terminal Aerodrome Forecast
Issued by NWS

Home | Current Version | Previous Version | Text Only | Print | Product List | Glossary On
Versions: 1 2 3 4 5 6 7 8 9 10 11 12 13 14 15 16 17
000
FTUS46 KPDT 051720
TAFBDN
TAF
KBDN 051720Z 0518/0618 VRB05KT P6SM SCT050
     FM052000 33011G18KT P6SM SCT060
     FM060300 32007KT P6SM FEW050
     FM060600 20003KT P6SM SCT050 SCT150=

USA.gov is the U.S. government's official web portal to all federal, state and local government web resources and services.